createdAt,value
2022-12-01T00:03:32.964Z,31.08
2022-12-01T00:08:34.708Z,33.80
2022-12-01T00:13:37.180Z,30.40
2022-12-01T00:18:38.948Z,31.05
2022-12-01T00:23:43.853Z,31.27
2022-12-01T00:28:52.560Z,32.55
2022-12-01T00:33:54.799Z,31.58
2022-12-01T00:38:57.504Z,33.13
2022-12-01T00:43:59.153Z,30.40
2022-12-01T00:49:00.862Z,31.02
2022-12-01T00:54:02.526Z,33.33
2022-12-01T00:59:04.215Z,30.98
2022-12-01T01:04:06.645Z,28.83
2022-12-01T01:09:08.311Z,30.63
2022-12-01T01:14:10.197Z,29.30
2022-12-01T01:19:12.426Z,28.33
2022-12-01T01:24:14.083Z,30.80
2022-12-01T01:29:15.745Z,30.20
2022-12-01T01:34:17.401Z,29.33
2022-12-01T01:39:19.333Z,27.33
2022-12-01T01:44:49.168Z,30.00
2022-12-01T01:49:52.206Z,26.67
2022-12-01T01:54:55.733Z,29.83
2022-12-01T02:00:07.520Z,28.75
2022-12-01T02:05:21.425Z,29.13
2022-12-01T02:10:37.964Z,30.00
2022-12-01T02:16:00.961Z,27.50
2022-12-01T02:21:29.477Z,29.70
2022-12-01T02:27:09.485Z,27.83
2022-12-01T02:32:45.965Z,28.33
2022-12-01T02:38:24.131Z,30.47
2022-12-01T02:44:04.988Z,27.30
2022-12-01T02:49:24.082Z,29.70
2022-12-01T02:54:29.932Z,30.15
2022-12-01T02:59:31.634Z,28.70
2022-12-01T03:05:01.517Z,29.80
2022-12-01T03:10:17.873Z,31.20
2022-12-01T03:15:30.557Z,30.70
2022-12-01T03:20:39.680Z,28.13
2022-12-01T03:25:45.306Z,29.00
2022-12-01T03:30:50.850Z,29.63
2022-12-01T03:35:59.798Z,31.53
2022-12-01T03:41:09.435Z,29.47
2022-12-01T03:46:17.773Z,31.57
2022-12-01T03:51:30.495Z,28.03
2022-12-01T03:56:38.665Z,27.53
2022-12-01T04:01:40.477Z,29.30
2022-12-01T04:06:48.891Z,30.37
2022-12-01T04:12:08.780Z,27.63
2022-12-01T04:17:10.543Z,27.97
2022-12-01T04:22:12.212Z,31.10
2022-12-01T04:27:13.958Z,31.27
2022-12-01T04:32:15.815Z,29.03
2022-12-01T04:37:18.058Z,30.03
2022-12-01T04:42:19.754Z,30.73
2022-12-01T04:47:21.418Z,33.38
2022-12-01T04:52:23.126Z,28.83
2022-12-01T04:57:24.791Z,31.43
2022-12-01T05:02:26.521Z,33.07
2022-12-01T05:07:28.362Z,32.97
2022-12-01T05:12:30.365Z,32.37
2022-12-01T05:17:36.741Z,33.03
2022-12-01T05:23:04.368Z,34.30
2022-12-01T05:28:00.574Z,32.07
2022-12-01T05:33:02.249Z,34.27
2022-12-01T05:38:07.723Z,34.27
2022-12-01T05:43:09.947Z,32.67
2022-12-01T05:48:11.635Z,35.10
2022-12-01T05:53:14.719Z,33.53
2022-12-01T05:58:16.403Z,34.27
2022-12-01T06:03:18.140Z,32.75
2022-12-01T06:08:19.831Z,33.07
2022-12-01T06:13:21.612Z,33.27
2022-12-01T06:18:24.225Z,33.17
2022-12-01T06:23:30.199Z,32.27
2022-12-01T06:28:32.527Z,33.92
2022-12-01T06:33:34.595Z,31.30
2022-12-01T06:38:37.182Z,33.90
2022-12-01T06:43:38.958Z,34.90
2022-12-01T06:48:40.712Z,32.33
2022-12-01T06:53:42.420Z,32.70
2022-12-01T06:58:44.107Z,26.97
2022-12-01T07:03:50.338Z,31.85
2022-12-01T07:08:53.155Z,30.33
2022-12-01T07:13:55.992Z,31.77
2022-12-01T07:18:57.743Z,30.10
2022-12-01T07:23:59.414Z,32.00
2022-12-01T07:29:01.098Z,29.75
2022-12-01T07:34:02.863Z,28.77
2022-12-01T07:39:06.606Z,30.67
2022-12-01T07:44:10.577Z,33.37
2022-12-01T07:49:14.907Z,32.03
2022-12-01T07:54:17.717Z,30.57
2022-12-01T07:59:19.456Z,33.05
2022-12-01T08:04:21.207Z,31.95
2022-12-01T08:09:24.550Z,34.77
2022-12-01T08:14:26.249Z,40.03
2022-12-01T08:19:29.353Z,39.17
2022-12-01T08:24:31.061Z,37.73
2022-12-01T08:29:33.211Z,39.05
2022-12-01T08:34:38.736Z,38.03
2022-12-01T08:39:40.481Z,34.37
2022-12-01T08:44:42.239Z,35.23
2022-12-01T08:49:43.985Z,35.07
2022-12-01T08:54:45.919Z,35.65
2022-12-01T08:59:49.793Z,35.90
2022-12-01T09:04:51.908Z,37.78
2022-12-01T09:09:53.619Z,37.53
2022-12-01T09:14:55.327Z,40.08
2022-12-01T09:19:57.036Z,40.90
2022-12-01T09:24:58.749Z,37.30
2022-12-01T09:30:00.456Z,41.97
2022-12-01T09:35:02.119Z,41.27
2022-12-01T09:40:05.794Z,40.87
2022-12-01T09:45:25.730Z,41.40
2022-12-01T09:50:30.101Z,42.30
2022-12-01T09:55:32.269Z,41.60
2022-12-01T10:00:38.195Z,40.60
2022-12-01T10:06:18.556Z,41.95
2022-12-01T10:11:30.077Z,41.50
2022-12-01T10:16:49.677Z,42.20
2022-12-01T10:22:18.840Z,42.30
2022-12-01T10:27:33.323Z,44.35
2022-12-01T10:32:57.693Z,42.63
2022-12-01T10:38:01.922Z,45.67
2022-12-01T10:43:04.060Z,41.30
2022-12-01T10:48:23.087Z,41.70
2022-12-01T10:53:28.911Z,46.40
2022-12-01T10:58:34.441Z,44.58
2022-12-01T11:03:36.944Z,47.13
2022-12-01T11:08:50.710Z,46.28
2022-12-01T11:13:53.922Z,46.00
2022-12-01T11:19:26.580Z,46.38
2022-12-01T11:24:44.299Z,45.83
2022-12-01T11:29:49.695Z,46.58
2022-12-01T11:34:56.924Z,45.10
2022-12-01T11:40:08.345Z,45.65
2022-12-01T11:45:19.141Z,44.83
2022-12-01T11:50:27.429Z,42.60
2022-12-01T11:55:30.760Z,43.37
2022-12-01T12:00:53.346Z,41.70
2022-12-01T12:06:18.239Z,39.50
2022-12-01T12:11:58.933Z,62.60
2022-12-01T12:17:19.523Z,41.80
2022-12-01T12:22:29.344Z,40.30
2022-12-01T12:27:49.354Z,40.27
2022-12-01T12:33:19.017Z,38.53
2022-12-01T12:38:26.370Z,37.35
2022-12-01T12:43:41.035Z,51.25
2022-12-01T12:49:19.128Z,38.70
2022-12-01T12:54:29.921Z,41.25
2022-12-01T12:59:42.032Z,36.85
2022-12-01T13:04:52.899Z,36.55
2022-12-01T13:10:06.507Z,36.50
2022-12-01T13:15:27.808Z,34.47
2022-12-01T13:20:32.123Z,34.70
2022-12-01T13:25:39.609Z,36.88
2022-12-01T13:30:41.441Z,35.47
2022-12-01T13:35:43.253Z,33.88
2022-12-01T13:40:45.025Z,34.60
2022-12-01T13:45:48.521Z,36.63
2022-12-01T13:51:05.011Z,37.63
2022-12-01T13:56:15.491Z,34.00
2022-12-01T14:01:20.767Z,33.90
2022-12-01T14:06:27.672Z,36.77
2022-12-01T14:11:30.865Z,34.60
2022-12-01T14:16:51.682Z,37.47
2022-12-01T14:21:53.425Z,37.92
2022-12-01T14:26:55.569Z,37.22
2022-12-01T14:32:00.033Z,35.10
2022-12-01T14:37:16.313Z,36.55
2022-12-01T14:42:53.423Z,37.22
2022-12-01T14:48:09.423Z,35.93
2022-12-01T14:53:29.391Z,35.47
2022-12-01T14:58:32.122Z,36.80
2022-12-01T15:03:48.895Z,37.17
2022-12-01T15:14:38.596Z,36.17
2022-12-01T15:19:41.532Z,37.27
2022-12-01T15:24:44.107Z,35.80
2022-12-01T15:29:47.098Z,33.93
2022-12-01T15:34:53.000Z,36.70
2022-12-01T15:40:25.587Z,37.97
2022-12-01T15:45:22.422Z,38.50
2022-12-01T15:50:31.168Z,36.30
2022-12-01T15:55:38.890Z,42.20
2022-12-01T16:00:40.723Z,42.87
2022-12-01T16:05:44.629Z,37.20
2022-12-01T16:11:06.348Z,36.53
2022-12-01T16:16:35.911Z,39.10
2022-12-01T16:22:00.076Z,37.63
2022-12-01T16:27:07.715Z,35.87
2022-12-01T16:32:21.075Z,39.35
2022-12-01T16:37:23.747Z,36.10
2022-12-01T16:42:25.423Z,37.75
2022-12-01T16:47:27.125Z,30.65
2022-12-01T16:52:45.552Z,35.40
2022-12-01T16:57:47.634Z,36.33
2022-12-01T17:02:49.516Z,34.83
2022-12-01T17:07:51.845Z,33.58
2022-12-01T17:12:54.747Z,33.42
2022-12-01T17:17:56.413Z,34.00
2022-12-01T17:22:59.105Z,33.87
2022-12-01T17:28:00.907Z,35.33
2022-12-01T17:33:02.582Z,36.38
2022-12-01T17:38:04.521Z,36.90
2022-12-01T17:43:08.223Z,35.43
2022-12-01T17:48:10.810Z,35.47
2022-12-01T17:53:12.488Z,36.50
2022-12-01T17:58:14.396Z,38.25
2022-12-01T18:03:16.353Z,38.40
2022-12-01T18:08:18.050Z,36.57
2022-12-01T18:13:21.541Z,34.95
2022-12-01T18:18:23.572Z,34.90
2022-12-01T18:23:25.886Z,36.40
2022-12-01T18:28:27.563Z,36.30
2022-12-01T18:33:29.256Z,38.37
2022-12-01T18:38:31.151Z,36.97
2022-12-01T18:43:33.609Z,36.17
2022-12-01T18:48:35.619Z,36.47
2022-12-01T18:53:37.535Z,40.67
2022-12-01T18:58:39.972Z,36.92
2022-12-01T19:03:41.657Z,36.55
2022-12-01T19:08:44.566Z,37.20
2022-12-01T19:13:46.620Z,35.87
2022-12-01T19:18:48.557Z,35.10
2022-12-01T19:23:50.867Z,35.83
2022-12-01T19:28:52.769Z,36.50
2022-12-01T19:33:55.030Z,36.10
2022-12-01T19:39:00.466Z,35.65
2022-12-01T19:44:03.180Z,37.63
2022-12-01T19:49:05.727Z,36.67
2022-12-01T19:54:12.930Z,35.23
2022-12-01T19:59:15.047Z,37.43
2022-12-01T20:04:16.717Z,38.20
2022-12-01T20:09:19.118Z,40.03
2022-12-01T20:14:20.987Z,37.58
2022-12-01T20:19:22.782Z,38.13
2022-12-01T20:24:25.414Z,37.63
2022-12-01T20:29:29.520Z,37.75
2022-12-01T20:34:34.226Z,38.70
2022-12-01T20:39:38.193Z,38.53
2022-12-01T20:44:40.479Z,37.50
2022-12-01T20:49:42.255Z,38.15
2022-12-01T20:54:44.802Z,35.97
2022-12-01T20:59:46.456Z,37.13
2022-12-01T21:04:48.339Z,33.70
2022-12-01T21:09:50.274Z,39.00
2022-12-01T21:15:20.986Z,34.78
2022-12-01T21:20:31.112Z,34.65
2022-12-01T21:25:33.573Z,34.63
2022-12-01T21:30:35.274Z,37.72
2022-12-01T21:35:37.004Z,37.80
2022-12-01T21:40:42.332Z,36.10
2022-12-01T21:45:44.411Z,36.00
2022-12-01T21:50:50.855Z,37.95
2022-12-01T21:55:56.188Z,35.80
2022-12-01T22:00:59.459Z,37.88
2022-12-01T22:06:28.171Z,34.90
2022-12-01T22:11:27.091Z,35.15
2022-12-01T22:16:30.066Z,34.63
2022-12-01T22:21:35.191Z,36.40
2022-12-01T22:26:38.195Z,37.50
2022-12-01T22:31:39.901Z,35.88
2022-12-01T22:36:41.814Z,36.53
2022-12-01T22:41:44.285Z,37.20
2022-12-01T22:46:46.010Z,35.53
2022-12-01T22:52:15.192Z,36.63
2022-12-01T22:57:19.747Z,35.97
2022-12-01T23:02:33.234Z,37.28
2022-12-01T23:07:41.502Z,35.25
2022-12-01T23:12:44.907Z,37.05
2022-12-01T23:17:47.428Z,35.75
2022-12-01T23:22:49.094Z,36.80
2022-12-01T23:27:52.968Z,37.10
2022-12-01T23:33:14.374Z,34.53
2022-12-01T23:38:19.908Z,36.97
2022-12-01T23:43:34.717Z,34.63
2022-12-01T23:48:42.504Z,34.30
2022-12-01T23:53:44.548Z,37.50
2022-12-01T23:58:46.451Z,35.08
